Potrero (157, 448) Station Data

Red Flag Warning: No
Fire Weather Zone: 250
SDGE Region: Mountain Empire
Lat/Lon: 32.604/-116.607

Observations

Time Wind Speed/Gust Temp(F) RH Fuel Moist Fuel Temp(F) Dewpt(F) Tmax(F) Tmin(F) Accum Precip 10-min Precip SL Press(mb)
2/27 11:40pm 273 14 G 21 46° 100% - - 46° 47.6° 43.1° - - -
2/27 11:20pm 252 12 G 27 46° 100% - - 46° 47.6° 43.1° - - -
2/27 11:10pm 263 12 G 33 46° 100% - - 46° 47.6° 43.1° - - -
2/27 11:00pm 213 8 G 14 46° 100% - - 46° 47.6° 43.1° - - -
2/27 10:50pm 188 8 G 12 46° 100% - - 46° 47.6° 43.1° - - -
2/27 10:40pm 179 10 G 20 46° 100% - - 46° 47.6° 43.1° - - -
2/27 10:30pm 175 10 G 17 46° 100% - - 46° 47.6° 43.1° - - -
2/27 10:20pm 167 12 G 18 46° 100% - - 46° 47.6° 43.1° - - -
2/27 10:10pm 170 11 G 17 46° 100% - - 46° 47.6° 43.1° - - -
2/27 10:00pm 170 11 G 21 46° 100% - - 46° 47.6° 43.1° - - -
2/27 9:50pm 178 10 G 16 46° 100% - - 46° 47.6° 43.1° - - -
2/27 9:40pm 183 9 G 17 46° 100% - - 46° 47.6° 43.1° - - -
2/27 9:30pm 170 8 G 15 46° 100% - - 46° 47.6° 43.1° - - -
2/27 9:20pm 166 10 G 15 46° 100% - - 46° 47.6° 43.1° - - -
2/27 9:10pm 163 10 G 15 45° 100% - - 46° 47.6° 43.1° - - -
2/27 9:00pm 163 10 G 19 46° 100% - - 46° 47.6° 43.1° - - -
2/27 8:50pm 171 9 G 14 46° 100% - - 46° 47.6° 43.1° - - -
2/27 8:40pm 185 9 G 14 45° 100% - - 46° 47.6° 43.1° - - -
2/27 8:30pm 180 9 G 15 45° 100% - - 45° 47.6° 43.1° - - -
2/27 8:20pm 175 7 G 13 45° 100% - - 45° 47.6° 43.1° - - -
2/27 8:10pm 163 9 G 15 45° 100% - - 45° 47.6° 43.1° - - -
2/27 8:00pm 156 10 G 18 45° 100% - - 45° 47.6° 43.1° - - -
2/27 7:50pm 156 9 G 16 45° 100% - - 45° 47.6° 43.1° - - -
2/27 7:40pm 164 11 G 17 45° 100% - - 45° 47.6° 43.1° - - -
2/27 7:30pm 162 10 G 16 45° 100% - - 45° 47.6° 43.1° - - -
2/27 7:20pm 172 9 G 16 45° 100% - - 45° 47.6° 43.1° - - -
2/27 7:10pm 165 11 G 18 45° 100% - - 45° 47.6° 43.1° - - -
2/27 7:00pm 170 12 G 20 45° 100% - - 45° 47.6° 43.1° - - -
2/27 6:50pm 159 13 G 19 45° 100% - - 45° 47.6° 43.1° - - -
2/27 6:40pm 156 11 G 18 45° 100% - - 45° 47.6° 43.1° - - -
2/27 6:30pm 151 11 G 15 45° 100% - - 45° 47.6° 43.1° - - -
2/27 6:20pm 149 9 G 16 45° 100% - - 45° 47.6° 43.1° - - -
2/27 6:10pm 163 10 G 15 45° 100% - - 45° 47.6° 43.1° - - -
2/27 6:00pm 154 7 G 12 45° 100% - - 45° 47.6° 43.1° - - -
2/27 5:50pm 155 9 G 15 45° 100% - - 45° 47.6° 43.1° - - -
2/27 5:40pm 150 8 G 12 45° 100% - - 45° 47.6° 43.1° - - -
2/27 5:30pm 160 9 G 14 45° 100% - - 45° 47.6° 43.1° - - -
2/27 5:20pm 166 9 G 14 45° 100% - - 45° 47.6° 43.1° - - -
2/27 5:10pm 164 10 G 17 46° 100% - - 46° 47.6° 43.1° - - -
2/27 5:00pm 182 9 G 15 46° 100% - - 46° 47.6° 43.1° - - -
2/27 4:50pm 184 9 G 16 46° 100% - - 46° 47.6° 43.1° - - -
2/27 4:40pm 189 10 G 16 46° 100% - - 46° 47.6° 43.1° - - -
2/27 4:30pm 195 8 G 14 46° 100% - - 46° 47.6° 43.1° - - -
2/27 4:20pm 212 8 G 13 46° 100% - - 46° 47.6° 43.1° - - -
2/27 4:10pm 192 7 G 12 46° 100% - - 46° 47.6° 43.1° - - -
2/27 4:00pm 198 8 G 13 46° 100% - - 46° 47.6° 43.1° - - -
2/27 3:50pm 207 10 G 18 46° 100% - - 46° 47.6° 43.1° - - -
2/27 3:40pm 224 8 G 14 47° 100% - - 47° 47.6° 43.1° - - -
2/27 3:30pm 231 10 G 19 47° 100% - - 47° 47.6° 43.1° - - -
2/27 3:20pm 227 7 G 14 47° 100% - - 47° 47.6° 43.1° - - -
2/27 3:10pm 216 9 G 14 47° 100% - - 47° 47.6° 43.1° - - -
2/27 3:00pm 222 8 G 15 47° 100% - - 47° 47.6° 43.1° - - -
2/27 2:50pm 228 8 G 16 47° 100% - - 47° 47.6° 43.1° - - -
2/27 2:40pm 230 10 G 16 47° 100% - - 47° 47.6° 43.1° - - -
2/27 2:30pm 225 9 G 14 47° 100% - - 47° 47.6° 43.1° - - -
2/27 2:20pm 225 10 G 15 47° 100% - - 47° 47.6° 43.1° - - -
2/27 2:10pm 210 11 G 17 47° 100% - - 47° 47.6° 43.1° - - -
2/27 2:00pm 202 11 G 19 47° 100% - - 47° 47.6° 43.1° - - -
2/27 1:50pm 198 9 G 17 47° 100% - - 47° 47.6° 43.1° - - -
2/27 1:40pm 216 11 G 19 47° 100% - - 47° 47.6° 43.1° - - -
2/27 1:30pm 211 11 G 19 47° 100% - - 47° 47.6° 43.1° - - -
2/27 1:20pm 214 9 G 15 47° 100% - - 47° 47.6° 43.1° - - -
2/27 1:10pm 216 11 G 19 47° 100% - - 47° 47.6° 43.1° - - -
2/27 1:00pm 236 10 G 19 47° 100% - - 47° 47.6° 43.1° - - -
2/27 12:50pm 228 9 G 17 47° 100% - - 47° 47.6° 43.1° - - -
2/27 12:40pm 219 9 G 16 47° 100% - - 47° 47.6° 43.1° - - -
2/27 12:30pm 213 9 G 16 47° 100% - - 47° 47.6° 43.1° - - -
2/27 12:20pm 220 11 G 19 47° 100% - - 47° 47.6° 43.1° - - -
2/27 12:10pm 205 11 G 21 47° 100% - - 47° 47.6° 43.1° - - -
2/27 12:00pm 207 11 G 20 47° 100% - - 47° 47.6° 43.1° - - -
2/27 11:50am 218 8 G 15 47° 100% - - 47° 47.6° 43.1° - - -
2/27 11:40am 216 8 G 16 47° 100% - - 47° 47.6° 43.1° - - -
2/27 11:30am 206 9 G 16 47° 100% - - 47° 47.6° 43.1° - - -
2/27 11:20am 216 10 G 18 47° 100% - - 47° 47.6° 43.1° - - -
2/27 11:10am 216 10 G 18 47° 100% - - 47° 47.6° 43.1° - - -
2/27 11:00am 221 8 G 16 47° 100% - - 47° 47.6° 43.1° - - -
2/27 10:50am 191 11 G 19 47° 100% - - 47° 47.6° 43.1° - - -
2/27 10:40am 200 12 G 22 47° 100% - - 47° 47.5° 43.1° - - -
2/27 10:30am 213 9 G 16 47° 100% - - 47° 47.5° 43.1° - - -
2/27 10:20am 207 8 G 14 47° 100% - - 47° 47.4° 43.1° - - -
2/27 10:10am 189 11 G 18 47° 100% - - 47° 47.4° 43.1° - - -
2/27 10:00am 171 12 G 19 47° 100% - - 47° 47.4° 43.1° - - -
2/27 9:50am 177 8 G 18 47° 100% - - 47° 47.4° 43.1° - - -
2/27 9:40am 176 8 G 14 47° 100% - - 47° 47.3° 43.1° - - -
2/27 9:30am 166 10 G 18 47° 100% - - 47° 47.3° 43.1° - - -
2/27 9:20am 156 12 G 19 47° 100% - - 47° 47.3° 43.1° - - -
2/27 9:10am 168 9 G 14 47° 100% - - 47° 47.3° 43.1° - - -
2/27 9:00am 196 7 G 13 47° 100% - - 47° 47.3° 43.1° - - -
2/27 8:50am 197 12 G 19 47° 100% - - 47° 47.3° 43.1° - - -
2/27 8:40am 219 8 G 15 47° 100% - - 47° 47.3° 43.1° - - -
2/27 8:30am 232 6 G 12 47° 100% - - 47° 47.3° 43.1° - - -
2/27 8:20am 253 8 G 14 47° 100% - - 47° 47.3° 43.1° - - -
2/27 8:10am 265 6 G 15 47° 100% - - 47° 47.2° 43.1° - - -
2/27 8:00am 252 6 G 12 47° 100% - - 47° 47.2° 43.1° - - -
2/27 7:50am 218 4 G 9 47° 100% - - 47° 47.1° 43.1° - - -
2/27 7:40am 203 6 G 11 47° 100% - - 47° 47° 43.1° - - -
2/27 7:30am 199 6 G 10 47° 100% - - 47° 47° 43.1° - - -
2/27 7:20am 213 5 G 9 47° 100% - - 47° 47° 43.1° - - -
2/27 7:10am 208 6 G 11 47° 100% - - 47° 47° 43.1° - - -
2/27 7:00am 206 6 G 11 47° 100% - - 47° 47° 43.1° - - -
2/27 6:50am 213 6 G 11 47° 100% - - 47° 47° 43.1° - - -
2/27 6:40am 216 6 G 10 47° 100% - - 47° 47° 43.1° - - -
2/27 6:30am 202 7 G 11 47° 100% - - 47° 47° 43.1° - - -
2/27 6:20am 216 5 G 13 47° 100% - - 47° 47° 43.1° - - -
2/27 6:10am 205 6 G 12 47° 100% - - 47° 47° 43.1° - - -
2/27 6:00am 185 8 G 13 47° 100% - - 47° 47° 43.1° - - -
2/27 5:50am 193 7 G 12 47° 100% - - 47° 47° 43.1° - - -
2/27 5:40am 195 7 G 12 47° 100% - - 47° 47° 43.1° - - -
2/27 5:30am 191 9 G 14 47° 100% - - 47° 47° 43.1° - - -
2/27 5:20am 195 8 G 14 47° 100% - - 47° 46.9° 43.1° - - -
2/27 5:10am 192 9 G 15 47° 100% - - 47° 46.9° 43.1° - - -
2/27 5:00am 179 9 G 14 47° 100% - - 47° 46.7° 43.1° - - -
2/27 4:50am 182 10 G 14 46° 100% - - 46° 46.7° 43.1° - - -
2/27 4:40am 178 9 G 15 46° 100% - - 46° 46.5° 43.1° - - -
2/27 4:30am 193 6 G 11 46° 100% - - 46° 46.5° 43.1° - - -
2/27 4:20am 204 4 G 7 46° 100% - - 46° 46.4° 43.1° - - -
2/27 4:10am 196 5 G 8 46° 100% - - 46° 46.4° 43.1° - - -
2/27 4:00am 186 6 G 9 46° 100% - - 46° 46.2° 43.1° - - -
2/27 3:50am 183 5 G 9 46° 100% - - 46° 46.2° 43.1° - - -
2/27 3:40am 174 4 G 7 46° 100% - - 46° 46.1° 43.1° - - -
2/27 3:30am 192 4 G 7 46° 100% - - 46° 45.9° 43.1° - - -
2/27 3:20am 183 4 G 7 46° 100% - - 46° 45.9° 43.1° - - -
2/27 3:10am 181 4 G 8 46° 100% - - 46° 45.8° 43.1° - - -
2/27 3:00am 183 4 G 7 45° 100% - - 45° 45.6° 43.1° - - -
2/27 2:50am 153 3 G 4 45° 100% - - 45° 45.4° 43.1° - - -
2/27 2:40am 152 2 G 3 45° 100% - - 45° 45.3° 43.1° - - -
2/27 2:30am 160 2 G 5 45° 100% - - 45° 45.3° 43.1° - - -
2/27 2:20am 172 2 G 4 45° 100% - - 45° 45.2° 43.1° - - -
2/27 2:10am 183 3 G 4 45° 100% - - 45° 45.2° 43.1° - - -
2/27 2:00am 188 4 G 7 45° 100% - - 45° 45.1° 43.1° - - -
2/27 1:50am 216 4 G 7 45° 100% - - 45° 45.1° 43.1° - - -
2/27 1:40am 238 3 G 7 45° 100% - - 45° 44.9° 43.1° - - -
2/27 1:30am 260 2 G 5 44° 100% - - 44° 44.6° 43.1° - - -
2/27 1:20am 262 3 G 5 44° 100% - - 44° 44.5° 43.1° - - -
2/27 1:10am 276 1 G 4 44° 100% - - 44° 44.3° 43.1° - - -
2/27 1:00am 262 2 G 4 44° 100% - - 44° 44.2° 43.1° - - -
2/27 12:50am 269 2 G 5 44° 100% - - 44° 44° 43.1° - - -
2/27 12:40am 268 1 G 4 44° 100% - - 44° 43.9° 43.1° - - -
2/27 12:30am 305 1 G 4 43° 100% - - 43° 43.7° 43.1° - - -
2/27 12:20am 324 2 G 3 43° 100% - - 43° 43.5° 43.1° - - -
2/27 12:10am 319 2 G 3 43° 100% - - 43° 43.4° 43.1° - - -
2/27 12:00am 328 3 G 4 43° 100% - - 43° 46.1° 39.1° - - -
2/26 11:50pm 312 3 G 5 43° 100% - - 43° 46.1° 39.1° - - -
2/26 11:40pm 322 3 G 5 43° 100% - - 43° 46.1° 39.1° - - -
2/26 11:30pm 305 4 G 6 43° 100% - - 43° 46.1° 39.1° - - -
2/26 11:20pm 306 5 G 7 43° 100% - - 43° 46.1° 39.1° - - -
2/26 11:10pm 307 5 G 7 43° 100% - - 43° 46.1° 39.1° - - -
2/26 11:00pm 310 5 G 8 43° 100% - - 43° 46.1° 39.1° - - -
2/26 10:50pm 297 5 G 8 43° 100% - - 43° 46.1° 39.1° - - -
2/26 10:40pm 290 6 G 8 43° 100% - - 43° 46.1° 39.1° - - -
2/26 10:30pm 292 5 G 7 43° 100% - - 43° 46.1° 39.1° - - -
2/26 10:20pm 291 6 G 8 43° 100% - - 43° 46.1° 39.1° - - -
2/26 10:10pm 288 6 G 9 42° 100% - - 42° 46.1° 39.1° - - -
2/26 10:00pm 291 7 G 11 42° 100% - - 42° 46.1° 39.1° - - -
2/26 9:50pm 294 7 G 11 42° 100% - - 42° 46.1° 39.1° - - -
2/26 9:40pm 295 8 G 12 42° 100% - - 42° 46.1° 39.1° - - -
2/26 9:30pm 291 8 G 12 42° 100% - - 42° 46.1° 39.1° - - -
2/26 9:20pm 294 8 G 12 42° 100% - - 42° 46.1° 39.1° - - -
2/26 9:10pm 294 9 G 13 42° 100% - - 42° 46.1° 39.1° - - -
2/26 9:00pm 292 9 G 12 42° 100% - - 42° 46.1° 39.1° - - -
2/26 8:50pm 292 8 G 12 42° 100% - - 42° 46.1° 39.1° - - -
2/26 8:40pm 289 9 G 13 42° 100% - - 42° 46.1° 39.1° - - -
2/26 8:30pm 272 9 G 15 43° 100% - - 43° 46.1° 39.1° - - -
2/26 8:20pm 269 11 G 16 43° 100% - - 43° 46.1° 39.1° - - -
2/26 8:10pm 273 11 G 16 43° 100% - - 43° 46.1° 39.1° - - -
2/26 8:00pm 271 10 G 17 43° 100% - - 43° 46.1° 39.1° - - -
2/26 7:50pm 270 9 G 16 43° 100% - - 43° 46.1° 39.1° - - -
2/26 7:40pm 261 10 G 18 43° 100% - - 43° 46.1° 39.1° - - -
2/26 7:30pm 252 9 G 16 44° 100% - - 44° 46.1° 39.1° - - -
2/26 7:20pm 262 8 G 14 43° 100% - - 43° 46.1° 39.1° - - -
2/26 7:10pm 263 9 G 15 43° 100% - - 43° 46.1° 39.1° - - -
2/26 7:00pm 253 9 G 16 43° 100% - - 43° 46.1° 39.1° - - -
2/26 6:50pm 273 4 G 9 43° 100% - - 43° 46.1° 39.1° - - -
2/26 6:40pm 294 5 G 8 43° 100% - - 43° 46.1° 39.1° - - -
2/26 6:30pm 298 6 G 9 43° 100% - - 43° 46.1° 39.1° - - -
2/26 6:20pm 298 8 G 11 43° 100% - - 43° 46.1° 39.1° - - -
2/26 6:10pm 299 8 G 13 43° 100% - - 43° 46.1° 39.1° - - -
2/26 6:00pm 288 7 G 11 43° 100% - - 43° 46.1° 39.1° - - -
2/26 5:50pm 286 7 G 13 44° 100% - - 44° 46.1° 39.1° - - -
2/26 5:40pm 285 8 G 14 44° 100% - - 44° 46.1° 39.1° - - -
2/26 5:30pm 276 7 G 13 44° 100% - - 44° 46.1° 39.1° - - -
2/26 5:20pm 280 8 G 13 44° 100% - - 44° 46.1° 39.1° - - -
2/26 5:10pm 286 8 G 14 44° 97% - - 44° 46.1° 39.1° - - -
2/26 5:00pm 284 8 G 13 44° 91% - - 42° 46.1° 39.1° - - -